| time (UTC) | temp F | wind direction | speed knots | gust knots | rain 1hr in | rain 24hr in | rain mn in | humidity % | barometer mb |
| 20260506114204 | 54 | 311 | 1.7 | 4.3 | 0.00 | 0.67 | 0.09 | 86 | 1006.6 |
| 20260506113704 | 54 | 259 | 0.9 | 3.5 | 0.00 | 0.67 | 0.09 | 87 | 1006.5 |
| 20260506113224 | 54 | 275 | 0.9 | 4.3 | 0.00 | 0.67 | 0.09 | 87 | 1006.5 |
| 20260506112704 | 54 | 274 | 1.7 | 6.1 | 0.00 | 0.67 | 0.09 | 86 | 1006.4 |
| 20260506112205 | 54 | 32 | 1.7 | 6.1 | 0.00 | 0.67 | 0.09 | 86 | 1006.3 |
| 20260506111728 | 54 | 294 | 1.7 | 6.1 | 0.00 | 0.67 | 0.09 | 87 | 1006.3 |
| 20260506111204 | 54 | 261 | 1.7 | 6.1 | 0.00 | 0.67 | 0.09 | 87 | 1006.3 |
| 20260506110705 | 54 | 294 | 0.9 | 5.2 | 0.00 | 0.67 | 0.09 | 88 | 1006.3 |
| 20260506110204 | 54 | 273 | 0.9 | 5.2 | 0.00 | 0.67 | 0.09 | 88 | 1006.3 |
| 20260506105704 | 54 | 288 | 0.9 | 3.5 | 0.00 | 0.67 | 0.09 | 89 | 1006.2 |
| 20260506105204 | 54 | 290 | 0.9 | 2.6 | 0.00 | 0.67 | 0.09 | 89 | 1006.2 |
| 20260506104704 | 54 | 325 | 0.0 | 3.5 | 0.00 | 0.67 | 0.09 | 89 | 1006.2 |
| 20260506103704 | 54 | 306 | 0.9 | 3.5 | 0.00 | 0.67 | 0.09 | 89 | 1006.0 |
| 20260506103204 | 54 | 275 | 0.9 | 3.5 | 0.00 | 0.67 | 0.09 | 89 | 1006.0 |
| 20260506102704 | 54 | 293 | 0.9 | 4.3 | 0.00 | 0.67 | 0.09 | 90 | 1006.0 |
| 20260506102204 | 53 | 312 | 0.9 | 4.3 | 0.00 | 0.67 | 0.09 | 90 | 1006.0 |
| 20260506101704 | 53 | 271 | 0.9 | 4.3 | 0.00 | 0.67 | 0.09 | 90 | 1005.9 |
| 20260506101204 | 53 | 236 | 0.9 | 4.3 | 0.00 | 0.67 | 0.09 | 91 | 1005.9 |
| 20260506100704 | 53 | 281 | 1.7 | 6.1 | 0.00 | 0.67 | 0.09 | 91 | 1005.9 |
| 20260506100223 | 53 | 225 | 1.7 | 6.1 | 0.00 | 0.67 | 0.09 | 91 | 1005.8 |
| 20260506095704 | 53 | 217 | 0.9 | 6.1 | 0.00 | 0.67 | 0.09 | 91 | 1005.8 |
| 20260506095204 | 53 | 249 | 0.9 | 5.2 | 0.00 | 0.67 | 0.09 | 92 | 1005.8 |
| 20260506094704 | 53 | 340 | 0.9 | 5.2 | 0.00 | 0.67 | 0.09 | 91 | 1005.7 |
| 20260506093704 | 53 | 311 | 1.7 | 5.2 | 0.00 | 0.67 | 0.09 | 92 | 1005.7 |
| 20260506093205 | 53 | 300 | 1.7 | 5.2 | 0.00 | 0.67 | 0.09 | 92 | 1005.5 |
| 20260506092704 | 53 | 274 | 1.7 | 4.3 | 0.00 | 0.67 | 0.09 | 92 | 1005.5 |
| 20260506092204 | 53 | 225 | 0.9 | 4.3 | 0.00 | 0.67 | 0.09 | 93 | 1005.5 |
| 20260506091704 | 53 | 304 | 0.9 | 3.5 | 0.00 | 0.67 | 0.09 | 93 | 1005.4 |
| 20260506090704 | 53 | 339 | 0.9 | 2.6 | 0.00 | 0.67 | 0.09 | 94 | 1005.4 |
| 20260506085704 | 52 | 303 | 0.9 | 6.1 | 0.00 | 0.67 | 0.09 | 95 | 1005.3 |
| 20260506085204 | 52 | 290 | 1.7 | 6.1 | 0.00 | 0.67 | 0.09 | 95 | 1005.3 |
| 20260506084704 | 52 | 289 | 2.6 | 6.1 | 0.00 | 0.67 | 0.09 | 95 | 1005.3 |
| 20260506084204 | 52 | 296 | 1.7 | 4.3 | 0.00 | 0.67 | 0.09 | 96 | 1005.2 |
| 20260506083704 | 52 | 234 | 1.7 | 4.3 | 0.00 | 0.67 | 0.09 | 96 | 1005.1 |
| 20260506083204 | 52 | 253 | 1.7 | 6.1 | 0.00 | 0.67 | 0.09 | 95 | 1005.2 |
| 20260506082204 | 52 | 340 | 1.7 | 6.1 | 0.01 | 0.67 | 0.09 | 96 | 1005.0 |
| 20260506081704 | 52 | 270 | 0.9 | 4.3 | 0.01 | 0.67 | 0.09 | 96 | 1005.0 |
| 20260506081204 | 52 | 256 | 0.9 | 4.3 | 0.01 | 0.67 | 0.09 | 96 | 1005.0 |
| 20260506080204 | 52 | 310 | 0.9 | 3.5 | 0.01 | 0.67 | 0.09 | 96 | 1004.9 |
| 20260506073204 | 52 | 264 | 0.9 | 4.3 | 0.01 | 0.66 | 0.09 | 96 | 1005.0 |
| 20260506072704 | 52 | 264 | 0.9 | 3.5 | 0.01 | 0.66 | 0.09 | 96 | 1005.0 |
| 20260506072204 | 52 | 268 | 0.0 | 3.5 | 0.01 | 0.66 | 0.09 | 96 | 1005.0 |
| 20260506071704 | 52 | 252 | 0.0 | 1.7 | 0.02 | 0.66 | 0.09 | 96 | 1004.9 |
| 20260506071204 | 52 | 252 | 0.0 | 1.7 | 0.02 | 0.66 | 0.09 | 96 | 1004.8 |
| 20260506070704 | 52 | 250 | 0.0 | 1.7 | 0.02 | 0.66 | 0.09 | 96 | 1004.8 |
| 20260506070205 | 52 | 250 | 0.0 | 2.6 | 0.03 | 0.66 | 0.09 | 96 | 1004.8 |
| 20260506062204 | 52 | 248 | 0.9 | 3.5 | 0.05 | 0.65 | 0.08 | 96 | 1004.4 |
| 20260506061704 | 52 | 248 | 0.9 | 3.5 | 0.04 | 0.65 | 0.07 | 96 | 1004.5 |
| 20260506061204 | 53 | 248 | 0.9 | 4.3 | 0.03 | 0.64 | 0.06 | 96 | 1004.5 |
| 20260506060704 | 53 | 248 | 1.7 | 4.3 | 0.03 | 0.64 | 0.06 | 95 | 1004.3 |
| 20260506051204 | 53 | 177 | 0.0 | 2.6 | 0.01 | 0.61 | 0.03 | 96 | 1004.2 |
| 20260506050204 | 53 | 232 | 0.0 | 2.6 | 0.02 | 0.61 | 0.03 | 96 | 1004.1 |
| 20260506044704 | 53 | 244 | 0.0 | 1.7 | 0.03 | 0.61 | 0.03 | 95 | 1004.0 |
| 20260506044204 | 53 | 243 | 0.0 | 1.7 | 0.03 | 0.61 | 0.03 | 95 | 1003.9 |
| 20260506043704 | 53 | 243 | 0.0 | 2.6 | 0.03 | 0.61 | 0.03 | 95 | 1004.1 |
| 20260506043204 | 53 | 243 | 0.0 | 2.6 | 0.03 | 0.61 | 0.03 | 95 | 1004.1 |
| 20260506042704 | 53 | 243 | 0.0 | 2.6 | 0.03 | 0.61 | 0.03 | 95 | 1004.2 |
| 20260506042204 | 53 | 231 | 0.0 | 0.9 | 0.02 | 0.60 | 0.02 | 95 | 1004.2 |
| 20260506041704 | 53 | 231 | 0.0 | 0.0 | 0.02 | 0.60 | 0.02 | 95 | 1004.2 |
| 20260506041204 | 53 | 231 | 0.0 | 0.0 | 0.02 | 0.60 | 0.02 | 95 | 1004.2 |
| 20260506040704 | 53 | 231 | 0.0 | 0.0 | 0.01 | 0.58 | 0.01 | 95 | 1004.3 |
| 20260506040205 | 53 | 231 | 0.0 | 1.7 | 0.00 | 0.57 | 0.00 | 95 | 1004.2 |
| 20260506035704 | 53 | 231 | 0.0 | 1.7 | 0.00 | 0.57 | 0.00 | 94 | 1004.3 |
| 20260506034704 | 53 | 229 | 0.0 | 2.6 | 0.00 | 0.57 | 0.00 | 94 | 1004.4 |
| 20260506034205 | 53 | 229 | 0.0 | 1.7 | 0.00 | 0.57 | 0.00 | 94 | 1004.4 |
| 20260506033704 | 53 | 227 | 0.0 | 2.6 | 0.00 | 0.57 | 0.00 | 94 | 1004.5 |
| 20260506033204 | 53 | 225 | 0.0 | 2.6 | 0.00 | 0.57 | 0.00 | 94 | 1004.4 |
| 20260506032704 | 53 | 225 | 0.0 | 2.6 | 0.00 | 0.57 | 0.00 | 94 | 1004.5 |
| 20260506032205 | 53 | 224 | 0.0 | 2.6 | 0.00 | 0.57 | 0.00 | 94 | 1004.5 |
| 20260506031704 | 53 | 240 | 0.0 | 2.6 | 0.00 | 0.57 | 0.00 | 95 | 1004.5 |
| 20260506030704 | 53 | 252 | 0.0 | 1.7 | 0.00 | 0.57 | 0.00 | 95 | 1004.6 |
| 20260506030205 | 53 | 252 | 0.0 | 1.7 | 0.00 | 0.57 | 0.00 | 95 | 1004.5 |
| 20260506025704 | 53 | 236 | 0.0 | 3.5 | 0.00 | 0.57 | 0.00 | 95 | 1004.6 |
| 20260506025204 | 53 | 236 | 0.0 | 3.5 | 0.00 | 0.57 | 0.00 | 95 | 1004.6 |
| 20260506024704 | 53 | 236 | 0.0 | 3.5 | 0.00 | 0.57 | 0.00 | 95 | 1004.6 |
| 20260506024204 | 53 | 231 | 0.0 | 2.6 | 0.00 | 0.57 | 0.00 | 95 | 1004.7 |
| 20260506023704 | 53 | 235 | 0.0 | 3.5 | 0.00 | 0.57 | 0.00 | 95 | 1004.6 |
| 20260506023204 | 53 | 217 | 0.0 | 3.5 | 0.00 | 0.57 | 0.00 | 95 | 1004.6 |
| 20260506022704 | 53 | 217 | 0.9 | 4.3 | 0.00 | 0.57 | 0.00 | 95 | 1004.6 |
| 20260506022204 | 53 | 214 | 1.7 | 5.2 | 0.00 | 0.57 | 0.00 | 95 | 1004.6 |
| 20260506021705 | 54 | 247 | 1.7 | 5.2 | 0.00 | 0.57 | 0.00 | 95 | 1004.6 |
| 20260506021205 | 54 | 252 | 0.9 | 5.2 | 0.00 | 0.57 | 0.00 | 95 | 1004.6 |
| 20260506020704 | 54 | 244 | 0.9 | 4.3 | 0.00 | 0.57 | 0.00 | 95 | 1004.7 |
| 20260506020204 | 54 | 233 | 0.9 | 3.5 | 0.00 | 0.57 | 0.00 | 95 | 1004.5 |
| 20260506015704 | 54 | 235 | 0.0 | 2.6 | 0.00 | 0.57 | 0.00 | 95 | 1004.6 |
| 20260506015204 | 54 | 222 | 0.0 | 2.6 | 0.00 | 0.57 | 0.00 | 95 | 1004.7 |
| 20260506014704 | 54 | 223 | 0.9 | 2.6 | 0.00 | 0.57 | 0.00 | 95 | 1004.6 |
| 20260506014205 | 54 | 294 | 0.9 | 3.5 | 0.00 | 0.57 | 0.00 | 95 | 1004.7 |
| 20260506013705 | 54 | 11 | 0.9 | 4.3 | 0.00 | 0.57 | 0.00 | 95 | 1004.8 |
| 20260506012704 | 54 | 236 | 0.9 | 4.3 | 0.00 | 0.57 | 0.00 | 95 | 1004.9 |
| 20260506012204 | 54 | 242 | 0.9 | 4.3 | 0.00 | 0.57 | 0.00 | 95 | 1004.8 |
| 20260506011704 | 54 | 232 | 0.9 | 3.5 | 0.00 | 0.57 | 0.00 | 95 | 1004.9 |
| 20260506011204 | 54 | 238 | 0.0 | 3.5 | 0.00 | 0.57 | 0.00 | 95 | 1004.9 |
| 20260506010704 | 54 | 242 | 0.0 | 3.5 | 0.00 | 0.57 | 0.00 | 95 | 1004.9 |
| 20260506010204 | 54 | 242 | 0.0 | 4.3 | 0.00 | 0.57 | 0.00 | 95 | 1004.9 |
| 20260506005705 | 54 | 255 | 0.9 | 4.3 | 0.00 | 0.57 | 0.00 | 95 | 1005.0 |
| 20260506005206 | 54 | 255 | 0.9 | 4.3 | 0.00 | 0.57 | 0.00 | 95 | 1004.9 |
| 20260506004704 | 54 | 213 | 0.9 | 5.2 | 0.00 | 0.57 | 0.00 | 95 | 1005.0 |
| 20260506004204 | 54 | 130 | 1.7 | 5.2 | 0.00 | 0.57 | 0.00 | 95 | 1005.1 |
| 20260506003204 | 54 | 228 | 0.9 | 7.0 | 0.00 | 0.57 | 0.00 | 95 | 1005.1 |
| 20260506002704 | 54 | 146 | 0.9 | 7.0 | 0.00 | 0.57 | 0.00 | 95 | 1005.1 |
| 20260506002204 | 54 | 156 | 0.9 | 5.2 | 0.00 | 0.57 | 0.00 | 95 | 1005.1 |
| 20260506001204 | 54 | 38 | 0.9 | 5.2 | 0.00 | 0.57 | 0.00 | 95 | 1005.2 |
| 20260505235704 | 55 | 227 | 0.9 | 4.3 | 0.00 | 0.57 | 0.00 | 95 | 1005.4 |
| 20260505235205 | 55 | 216 | 0.0 | 4.3 | 0.00 | 0.57 | 0.00 | 95 | 1005.4 |
| 20260505234704 | 55 | 201 | 0.9 | 4.3 | 0.00 | 0.57 | 0.00 | 95 | 1005.5 |
| 20260505234204 | 55 | 210 | 0.9 | 4.3 | 0.00 | 0.57 | 0.00 | 96 | 1005.5 |
| 20260505233704 | 55 | 221 | 0.0 | 4.3 | 0.00 | 0.57 | 0.00 | 96 | 1005.6 |
| 20260505233204 | 55 | 212 | 0.9 | 4.3 | 0.00 | 0.57 | 0.00 | 96 | 1005.5 |
| 20260505232705 | 55 | 237 | 0.9 | 4.3 | 0.00 | 0.57 | 0.00 | 96 | 1005.5 |
| 20260505232204 | 55 | 294 | 0.9 | 4.3 | 0.00 | 0.57 | 0.00 | 96 | 1005.5 |
| 20260505231705 | 55 | 152 | 0.9 | 4.3 | 0.00 | 0.57 | 0.00 | 96 | 1005.6 |
| 20260505231204 | 55 | 247 | 0.0 | 2.6 | 0.00 | 0.57 | 0.00 | 96 | 1005.5 |
| 20260505230704 | 55 | 185 | 0.0 | 3.5 | 0.00 | 0.57 | 0.00 | 96 | 1005.5 |
| 20260505225705 | 55 | 297 | 0.0 | 7.0 | 0.00 | 0.57 | 0.00 | 96 | 1005.5 |
| 20260505225205 | 55 | 241 | 0.0 | 7.0 | 0.00 | 0.57 | 0.00 | 96 | 1005.6 |
| 20260505224704 | 55 | 303 | 0.0 | 1.7 | 0.00 | 0.57 | 0.00 | 96 | 1005.6 |
| 20260505224204 | 55 | 179 | 0.0 | 5.2 | 0.00 | 0.57 | 0.00 | 96 | 1005.7 |
| 20260505223204 | 55 | 156 | 0.0 | 5.2 | 0.01 | 0.57 | 0.00 | 96 | 1005.6 |
| 20260505222730 | 55 | 138 | 0.0 | 0.9 | 0.01 | 0.57 | 0.00 | 96 | 1005.6 |
| 20260505222204 | 55 | 157 | 0.0 | 0.9 | 0.01 | 0.57 | 0.00 | 96 | 1005.6 |
| 20260505221704 | 55 | 156 | 0.0 | 0.9 | 0.01 | 0.57 | 0.00 | 96 | 1005.6 |
| 20260505221204 | 55 | 159 | 0.0 | 0.0 | 0.01 | 0.57 | 0.00 | 96 | 1005.6 |
| 20260505220705 | 55 | 160 | 0.0 | 0.9 | 0.01 | 0.57 | 0.00 | 96 | 1005.7 |
| 20260505220204 | 55 | 159 | 0.0 | 0.9 | 0.01 | 0.57 | 0.57 | 96 | 1005.7 |
| 20260505215704 | 55 | 160 | 0.0 | 0.9 | 0.01 | 0.57 | 0.57 | 96 | 1005.8 |
| 20260505215204 | 55 | 355 | 0.0 | 0.9 | 0.01 | 0.57 | 0.57 | 96 | 1005.9 |
| 20260505214205 | 55 | 355 | 0.0 | 0.9 | 0.01 | 0.57 | 0.57 | 96 | 1005.8 |
| 20260505213204 | 55 | 355 | 0.0 | 0.0 | 0.00 | 0.57 | 0.57 | 96 | 1005.9 |
| 20260505212704 | 55 | 355 | 0.0 | 0.0 | 0.00 | 0.57 | 0.57 | 96 | 1005.9 |
| 20260505212224 | 55 | 355 | 0.0 | 0.0 | 0.00 | 0.57 | 0.57 | 96 | 1006.0 |
| 20260505211205 | 55 | 355 | 0.0 | 0.0 | 0.00 | 0.57 | 0.57 | 96 | 1006.0 |
| 20260505210704 | 55 | 355 | 0.0 | 0.0 | 0.00 | 0.57 | 0.57 | 96 | 1006.2 |
| 20260505210204 | 55 | 355 | 0.0 | 0.0 | 0.00 | 0.57 | 0.57 | 96 | 1006.3 |
| 20260505205704 | 55 | 355 | 0.0 | 0.0 | 0.01 | 0.57 | 0.57 | 96 | 1006.2 |
| 20260505204704 | 55 | 355 | 0.0 | 0.9 | 0.03 | 0.57 | 0.57 | 96 | 1006.4 |
| 20260505203705 | 55 | 355 | 0.0 | 0.0 | 0.06 | 0.57 | 0.57 | 96 | 1006.3 |
| 20260505203204 | 56 | 355 | 0.0 | 0.0 | 0.08 | 0.57 | 0.57 | 96 | 1006.4 |
| 20260505202704 | 56 | 355 | 0.0 | 0.0 | 0.13 | 0.57 | 0.57 | 96 | 1006.4 |
| 20260505202204 | 56 | 355 | 0.0 | 0.0 | 0.17 | 0.57 | 0.57 | 96 | 1006.3 |
| 20260505201704 | 56 | 355 | 0.0 | 0.0 | 0.20 | 0.57 | 0.57 | 96 | 1006.3 |
| 20260505201204 | 56 | 355 | 0.0 | 0.0 | 0.21 | 0.57 | 0.57 | 96 | 1006.3 |
| 20260505200705 | 56 | 355 | 0.0 | 0.0 | 0.23 | 0.57 | 0.57 | 96 | 1006.3 |
| 20260505200204 | 56 | 355 | 0.0 | 1.7 | 0.24 | 0.57 | 0.57 | 96 | 1006.3 |
| 20260505195705 | 56 | 348 | 0.0 | 1.7 | 0.24 | 0.56 | 0.56 | 96 | 1006.0 |
| 20260505195205 | 56 | 348 | 0.0 | 2.6 | 0.24 | 0.54 | 0.54 | 95 | 1006.0 |
| 20260505194704 | 56 | 337 | 0.0 | 2.6 | 0.25 | 0.54 | 0.54 | 95 | 1006.0 |
| 20260505193704 | 56 | 335 | 0.0 | 1.7 | 0.24 | 0.50 | 0.50 | 95 | 1006.2 |
| 20260505193204 | 56 | 319 | 0.0 | 1.7 | 0.24 | 0.48 | 0.48 | 95 | 1005.9 |
| 20260505192704 | 56 | 31 | 0.0 | 0.0 | 0.18 | 0.42 | 0.42 | 96 | 1006.0 |
| 20260505191704 | 56 | 33 | 0.0 | 0.0 | 0.15 | 0.37 | 0.37 | 95 | 1006.0 |
| 20260505191204 | 56 | 33 | 0.0 | 0.0 | 0.13 | 0.35 | 0.35 | 95 | 1005.9 |
| 20260505190205 | 56 | 33 | 0.0 | 0.0 | 0.13 | 0.32 | 0.32 | 95 | 1005.9 |
| 20260505184704 | 56 | 33 | 0.0 | 0.0 | 0.09 | 0.28 | 0.28 | 95 | 1005.9 |
| 20260505184204 | 56 | 33 | 0.0 | 0.0 | 0.09 | 0.26 | 0.26 | 95 | 1005.9 |
| 20260505183705 | 56 | 33 | 0.0 | 0.0 | 0.09 | 0.25 | 0.25 | 94 | 1005.9 |
| 20260505181704 | 56 | 33 | 0.0 | 0.9 | 0.06 | 0.21 | 0.21 | 94 | 1005.9 |
| 20260505181205 | 56 | 15 | 0.0 | 2.6 | 0.05 | 0.20 | 0.20 | 94 | 1005.9 |
| 20260505180705 | 57 | 16 | 0.0 | 2.6 | 0.05 | 0.20 | 0.20 | 94 | 1005.9 |
| 20260505180204 | 57 | 19 | 0.0 | 2.6 | 0.03 | 0.19 | 0.19 | 94 | 1005.9 |
| 20260505175204 | 57 | 38 | 0.0 | 1.7 | 0.02 | 0.18 | 0.18 | 93 | 1006.0 |
| 20260505174705 | 57 | 38 | 0.0 | 0.9 | 0.02 | 0.18 | 0.18 | 93 | 1006.0 |
| 20260505174204 | 57 | 51 | 0.0 | 0.9 | 0.02 | 0.17 | 0.17 | 93 | 1006.0 |
| 20260505173704 | 57 | 313 | 0.0 | 0.9 | 0.01 | 0.17 | 0.17 | 92 | 1006.0 |
| 20260505173204 | 57 | 313 | 0.0 | 0.9 | 0.01 | 0.17 | 0.17 | 92 | 1006.2 |
| 20260505172705 | 57 | 313 | 0.0 | 0.9 | 0.00 | 0.16 | 0.16 | 92 | 1006.2 |
| 20260505172205 | 57 | 313 | 0.0 | 0.9 | 0.00 | 0.16 | 0.16 | 92 | 1006.2 |
| 20260505171704 | 58 | 313 | 0.0 | 0.9 | 0.00 | 0.16 | 0.16 | 92 | 1006.2 |
| 20260505171204 | 58 | 313 | 0.0 | 0.9 | 0.00 | 0.16 | 0.16 | 91 | 1006.2 |
| 20260505170704 | 58 | 313 | 0.0 | 0.9 | 0.00 | 0.16 | 0.16 | 91 | 1006.2 |
| 20260505170205 | 58 | 313 | 0.0 | 0.0 | 0.00 | 0.16 | 0.16 | 91 | 1006.2 |
| 20260505165705 | 58 | 313 | 0.0 | 0.0 | 0.00 | 0.16 | 0.16 | 91 | 1006.2 |
| 20260505165204 | 58 | 313 | 0.0 | 0.0 | 0.00 | 0.16 | 0.16 | 91 | 1006.2 |
| 20260505164704 | 58 | 313 | 0.0 | 0.0 | 0.00 | 0.16 | 0.16 | 92 | 1006.4 |
| 20260505164204 | 58 | 313 | 0.0 | 0.0 | 0.00 | 0.16 | 0.16 | 91 | 1006.2 |
| 20260505163704 | 58 | 313 | 0.0 | 0.9 | 0.01 | 0.16 | 0.16 | 91 | 1006.3 |
| 20260505162704 | 58 | 313 | 0.0 | 1.7 | 0.01 | 0.16 | 0.16 | 93 | 1006.4 |
| 20260505161720 | 58 | 313 | 0.0 | 1.7 | 0.01 | 0.16 | 0.16 | 93 | 1006.3 |
| 20260505161204 | 57 | 313 | 0.0 | 1.7 | 0.02 | 0.16 | 0.16 | 93 | 1006.3 |
| 20260505160204 | 57 | 313 | 0.0 | 1.7 | 0.02 | 0.16 | 0.16 | 92 | 1006.5 |
| 20260505152705 | 58 | 233 | 0.0 | 0.0 | 0.03 | 0.17 | 0.15 | 92 | 1006.6 |
| 20260505152204 | 58 | 233 | 0.0 | 0.0 | 0.03 | 0.17 | 0.15 | 92 | 1006.7 |
| 20260505151704 | 58 | 233 | 0.0 | 0.0 | 0.02 | 0.17 | 0.14 | 92 | 1006.7 |
| 20260505151219 | 58 | 233 | 0.0 | 0.0 | 0.03 | 0.18 | 0.14 | 92 | 1006.7 |
| 20260505150728 | 58 | 233 | 0.0 | 0.0 | 0.03 | 0.19 | 0.14 | 91 | 1006.8 |
| 20260505150205 | 58 | 233 | 0.0 | 0.0 | 0.02 | 0.20 | 0.13 | 91 | 1006.9 |
| 20260505140204 | 57 | 233 | 0.0 | 0.9 | 0.02 | 0.20 | 0.10 | 91 | 1007.1 |
| 20260505130204 | 58 | 242 | 0.0 | 3.5 | 0.07 | 0.17 | 0.08 | 92 | 1007.5 |
| 20260505124204 | 58 | 283 | 0.9 | 5.2 | 0.06 | 0.16 | 0.06 | 91 | 1007.5 |
| 20260505123704 | 58 | 210 | 0.9 | 3.5 | 0.06 | 0.15 | 0.06 | 91 | 1007.5 |
| 20260505123204 | 58 | 254 | 0.9 | 4.3 | 0.06 | 0.15 | 0.06 | 91 | 1007.4 |
| 20260505122704 | 58 | 254 | 0.9 | 4.3 | 0.04 | 0.13 | 0.04 | 89 | 1007.5 |
| 20260505122204 | 58 | 207 | 0.9 | 6.1 | 0.03 | 0.13 | 0.03 | 88 | 1007.6 |
| 20260505121704 | 59 | 272 | 0.9 | 6.1 | 0.03 | 0.13 | 0.03 | 88 | 1007.6 |
| 20260505121204 | 59 | 294 | 0.9 | 6.1 | 0.02 | 0.11 | 0.02 | 88 | 1007.7 |
| 20260505120704 | 60 | 145 | 0.0 | 3.5 | 0.01 | 0.10 | 0.01 | 87 | 1007.6 |
| 20260505120204 | 60 | 303 | 0.0 | 4.3 | 0.00 | 0.09 | 0.00 | 86 | 1007.5 |
| 20260505114704 | 61 | 244 | 0.9 | 4.3 | 0.00 | 0.09 | 0.00 | 83 | 1007.4 |